^^
Garrymore Weather Station Historical Data
Daily Summary for September 25, 2020 Units:  Both    English   Metric
Daily Weekly Monthly Yearly Custom
  High: Low: Average:
Temperature: 39.2 °F /  4 °C 39.2 °F /  4 °C 39.2 °F /  4 °C
Dew Point: 37.4 °F /  3 °C 35.6 °F /  2 °C 36.5 °F /  2.5 °C
Humidity: 92% 84% 90%
Wind Speed: 6.2mph /  10km/h - 3.4mph /  5.4km/h
Wind Gust: 9.9mph /  16km/h - -
Wind- - WNW
Pressure: 29.9 in /  1012.5 hPa 29.8 in /  1007.99 hPa -
Precipitation: 0 in /  0 mm    
Historical Graphs
 
 
Tabular Data for September 25, 2020
Time Temperature Dew Point Pressure Wind Wind Speed Wind Gust Humidity Rainfall Rate (Hourly) solar
00:00 39.2 °F /  4 °C 35.6 °F /  2 °C 29.8in /  1007.99hPa NW 3.1mph /  5km/h 6.2mph /  10km/h 84% 0in /  0mm 0 W/m2
00:05 39.2 °F /  4 °C 35.6 °F /  2 °C 29.8in /  1007.99hPa NW 3.1mph /  5km/h 6.2mph /  10km/h 84% 0in /  0mm 0 W/m2
00:10 39.2 °F /  4 °C 35.6 °F /  2 °C 29.8in /  1008.4hPa WNW 3.1mph /  5km/h 6.2mph /  10km/h 85% 0in /  0mm 0 W/m2
00:15 39.2 °F /  4 °C 35.6 °F /  2 °C 29.8in /  1008.3hPa NW 3.1mph /  5km/h 6.2mph /  10km/h 85% 0in /  0mm 0 W/m2
00:20 39.2 °F /  4 °C 35.6 °F /  2 °C 29.8in /  1008.23hPa NW 3.1mph /  5km/h 6.2mph /  10km/h 85% 0in /  0mm 0 W/m2
00:25 39.2 °F /  4 °C 35.6 °F /  2 °C 29.8in /  1008.6hPa WNW 3.1mph /  5km/h 6.2mph /  10km/h 85% 0in /  0mm 0 W/m2
00:30 39.2 °F /  4 °C 35.6 °F /  2 °C 29.8in /  1008.5hPa W 1.9mph /  3km/h 6.2mph /  10km/h 85% 0in /  0mm 0 W/m2
00:35 39.2 °F /  4 °C 35.6 °F /  2 °C 29.8in /  1008.43hPa W 3.1mph /  5km/h 8.1mph /  13km/h 85% 0in /  0mm 0 W/m2
00:40 39.2 °F /  4 °C 35.6 °F /  2 °C 29.8in /  1008.64hPa WNW 3.1mph /  5km/h 8.1mph /  13km/h 87% 0in /  0mm 0 W/m2
00:45 39.2 °F /  4 °C 35.6 °F /  2 °C 29.8in /  1008.4hPa NW 3.1mph /  5km/h 6.2mph /  10km/h 87% 0in /  0mm 0 W/m2
00:50 39.2 °F /  4 °C 35.6 °F /  2 °C 29.8in /  1008.77hPa WNW 3.1mph /  5km/h 6.2mph /  10km/h 87% 0in /  0mm 0 W/m2
00:55 39.2 °F /  4 °C 35.6 °F /  2 °C 29.8in /  1008.7hPa WNW 3.1mph /  5km/h 6.2mph /  10km/h 87% 0in /  0mm 0 W/m2
01:00 39.2 °F /  4 °C 35.6 °F /  2 °C 29.8in /  1008.91hPa WNW 3.1mph /  5km/h 6.2mph /  10km/h 87% 0in /  0mm 0 W/m2
01:05 39.2 °F /  4 °C 35.6 °F /  2 °C 29.8in /  1009.01hPa WNW 3.1mph /  5km/h 6.2mph /  10km/h 87% 0in /  0mm 0 W/m2
01:10 39.2 °F /  4 °C 35.6 °F /  2 °C 29.8in /  1009.28hPa WNW 3.1mph /  5km/h 6.2mph /  10km/h 88% 0in /  0mm 0 W/m2
01:15 39.2 °F /  4 °C 35.6 °F /  2 °C 29.8in /  1009.38hPa W 5mph /  8km/h 8.1mph /  13km/h 88% 0in /  0mm 0 W/m2
01:20 39.2 °F /  4 °C 35.6 °F /  2 °C 29.8in /  1009.41hPa WNW 3.1mph /  5km/h 8.1mph /  13km/h 89% 0in /  0mm 0 W/m2
01:25 39.2 °F /  4 °C 35.6 °F /  2 °C 29.8in /  1009.41hPa NW 3.1mph /  5km/h 6.8mph /  11km/h 88% 0in /  0mm 0 W/m2
01:30 39.2 °F /  4 °C 35.6 °F /  2 °C 29.8in /  1009.69hPa NW 3.1mph /  5km/h 8.7mph /  14km/h 89% 0in /  0mm 0 W/m2
01:35 39.2 °F /  4 °C 35.6 °F /  2 °C 29.8in /  1009.62hPa NW 3.1mph /  5km/h 8.7mph /  14km/h 89% 0in /  0mm 0 W/m2
01:40 39.2 °F /  4 °C 35.6 °F /  2 °C 29.8in /  1009.79hPa WNW 3.1mph /  5km/h 8.1mph /  13km/h 89% 0in /  0mm 0 W/m2
01:45 39.2 °F /  4 °C 35.6 °F /  2 °C 29.8in /  1009.89hPa WNW 5mph /  8km/h 8.1mph /  13km/h 89% 0in /  0mm 0 W/m2
01:50 39.2 °F /  4 °C 37.4 °F /  3 °C 29.8in /  1009.89hPa W 5mph /  8km/h 8.1mph /  13km/h 90% 0in /  0mm 0 W/m2
01:55 39.2 °F /  4 °C 37.4 °F /  3 °C 29.8in /  1009.79hPa WNW 3.1mph /  5km/h 6.8mph /  11km/h 90% 0in /  0mm 0 W/m2
02:00 39.2 °F /  4 °C 37.4 °F /  3 °C 29.8in /  1010.19hPa NW 1.9mph /  3km/h 6.2mph /  10km/h 90% 0in /  0mm 0 W/m2
02:05 39.2 °F /  4 °C 37.4 °F /  3 °C 29.8in /  1010.09hPa W 3.1mph /  5km/h 6.8mph /  11km/h 91% 0in /  0mm 0 W/m2
02:10 39.2 °F /  4 °C 37.4 °F /  3 °C 29.8in /  1010.4hPa W 1.9mph /  3km/h 6.8mph /  11km/h 91% 0in /  0mm 0 W/m2
02:15 39.2 °F /  4 °C 37.4 °F /  3 °C 29.8in /  1010.4hPa WNW 6.2mph /  10km/h 6.8mph /  11km/h 91% 0in /  0mm 0 W/m2
02:20 39.2 °F /  4 °C 37.4 °F /  3 °C 29.8in /  1010.5hPa NW 3.1mph /  5km/h 6.8mph /  11km/h 90% 0in /  0mm 0 W/m2
02:25 39.2 °F /  4 °C 37.4 °F /  3 °C 29.8in /  1010.7hPa WNW 3.1mph /  5km/h 8.1mph /  13km/h 90% 0in /  0mm 0 W/m2
02:30 39.2 °F /  4 °C 37.4 °F /  3 °C 29.9in /  1010.8hPa WNW 3.1mph /  5km/h 8.1mph /  13km/h 91% 0in /  0mm 0 W/m2
02:35 39.2 °F /  4 °C 37.4 °F /  3 °C 29.9in /  1010.8hPa NW 3.1mph /  5km/h 6.2mph /  10km/h 91% 0in /  0mm 0 W/m2
02:40 39.2 °F /  4 °C 37.4 °F /  3 °C 29.9in /  1011.01hPa WNW 3.1mph /  5km/h 8.1mph /  13km/h 91% 0in /  0mm 0 W/m2
02:45 39.2 °F /  4 °C 37.4 °F /  3 °C 29.9in /  1011.11hPa WNW 1.9mph /  3km/h 8.1mph /  13km/h 90% 0in /  0mm 0 W/m2
02:50 39.2 °F /  4 °C 37.4 °F /  3 °C 29.9in /  1011.21hPa W 3.1mph /  5km/h 6.2mph /  10km/h 90% 0in /  0mm 0 W/m2
02:55 39.2 °F /  4 °C 37.4 °F /  3 °C 29.9in /  1011.11hPa W 3.1mph /  5km/h 6.2mph /  10km/h 91% 0in /  0mm 0 W/m2
03:00 39.2 °F /  4 °C 37.4 °F /  3 °C 29.9in /  1011.11hPa NW 1.9mph /  3km/h 8.1mph /  13km/h 91% 0in /  0mm 0 W/m2
03:05 39.2 °F /  4 °C 37.4 °F /  3 °C 29.9in /  1011.11hPa WNW 3.1mph /  5km/h 6.2mph /  10km/h 91% 0in /  0mm 0 W/m2
03:10 39.2 °F /  4 °C 35.6 °F /  2 °C 29.9in /  1011.28hPa W 1.2mph /  2km/h 6.2mph /  10km/h 91% 0in /  0mm 0 W/m2
03:15 39.2 °F /  4 °C 35.6 °F /  2 °C 29.9in /  1011.21hPa WNW 1.2mph /  2km/h 6.2mph /  10km/h 91% 0in /  0mm 0 W/m2
03:20 39.2 °F /  4 °C 35.6 °F /  2 °C 29.9in /  1011.31hPa NW 1.9mph /  3km/h 5mph /  8km/h 91% 0in /  0mm 0 W/m2
03:25 39.2 °F /  4 °C 35.6 °F /  2 °C 29.9in /  1011.28hPa WSW 3.1mph /  5km/h 6.2mph /  10km/h 91% 0in /  0mm 0 W/m2
03:30 39.2 °F /  4 °C 35.6 °F /  2 °C 29.9in /  1011.21hPa WSW 3.1mph /  5km/h 9.9mph /  16km/h 91% 0in /  0mm 0 W/m2
03:35 39.2 °F /  4 °C 35.6 °F /  2 °C 29.9in /  1011.38hPa WSW 3.1mph /  5km/h 8.1mph /  13km/h 91% 0in /  0mm 0 W/m2
03:40 39.2 °F /  4 °C 35.6 °F /  2 °C 29.9in /  1011.51hPa W 5mph /  8km/h 8.1mph /  13km/h 91% 0in /  0mm 0 W/m2
03:45 39.2 °F /  4 °C 37.4 °F /  3 °C 29.9in /  1011.58hPa WNW 3.1mph /  5km/h 9.9mph /  16km/h 92% 0in /  0mm 0 W/m2
03:50 39.2 °F /  4 °C 37.4 °F /  3 °C 29.9in /  1011.62hPa W 3.1mph /  5km/h 8.1mph /  13km/h 92% 0in /  0mm 0 W/m2
03:55 39.2 °F /  4 °C 37.4 °F /  3 °C 29.9in /  1011.62hPa W 5mph /  8km/h 8.7mph /  14km/h 92% 0in /  0mm 0 W/m2
04:00 39.2 °F /  4 °C 37.4 °F /  3 °C 29.9in /  1011.62hPa WNW 6.2mph /  10km/h 8.7mph /  14km/h 91% 0in /  0mm 0 W/m2
04:05 39.2 °F /  4 °C 37.4 °F /  3 °C 29.9in /  1011.89hPa NW 3.1mph /  5km/h 8.7mph /  14km/h 91% 0in /  0mm 0 W/m2
04:10 39.2 °F /  4 °C 37.4 °F /  3 °C 29.9in /  1011.99hPa W 5mph /  8km/h 8.1mph /  13km/h 91% 0in /  0mm 0 W/m2
04:15 39.2 °F /  4 °C 37.4 °F /  3 °C 29.9in /  1011.89hPa W 5mph /  8km/h 8.1mph /  13km/h 91% 0in /  0mm 0 W/m2
04:20 39.2 °F /  4 °C 37.4 °F /  3 °C 29.9in /  1011.99hPa W 1.9mph /  3km/h 8.1mph /  13km/h 91% 0in /  0mm 0 W/m2
04:25 39.2 °F /  4 °C 37.4 °F /  3 °C 29.9in /  1012.29hPa WNW 5mph /  8km/h 8.1mph /  13km/h 91% 0in /  0mm 0 W/m2
04:30 39.2 °F /  4 °C 37.4 °F /  3 °C 29.9in /  1012.02hPa WNW 3.1mph /  5km/h 8.1mph /  13km/h 91% 0in /  0mm 0 W/m2
04:35 39.2 °F /  4 °C 37.4 °F /  3 °C 29.9in /  1012.19hPa NW 5mph /  8km/h 6.2mph /  10km/h 91% 0in /  0mm 0 W/m2
04:40 39.2 °F /  4 °C 37.4 °F /  3 °C 29.9in /  1012.19hPa WNW 3.1mph /  5km/h 6.8mph /  11km/h 92% 0in /  0mm 0 W/m2
04:45 39.2 °F /  4 °C 37.4 °F /  3 °C 29.9in /  1012.39hPa WNW 3.1mph /  5km/h 6.8mph /  11km/h 92% 0in /  0mm 0 W/m2
04:50 39.2 °F /  4 °C 37.4 °F /  3 °C 29.9in /  1012.39hPa WNW 3.1mph /  5km/h 6.2mph /  10km/h 92% 0in /  0mm 0 W/m2
04:55 39.2 °F /  4 °C 37.4 °F /  3 °C 29.9in /  1012.39hPa WNW 5mph /  8km/h 6.8mph /  11km/h 92% 0in /  0mm 0 W/m2
05:00 39.2 °F /  4 °C 37.4 °F /  3 °C 29.9in /  1012.5hPa WNW 5mph /  8km/h 6.8mph /  11km/h 92% 0in /  0mm 0 W/m2
05:05 39.2 °F /  4 °C 37.4 °F /  3 °C 29.9in /  1012.5hPa WNW 3.1mph /  5km/h 6.2mph /  10km/h 92% 0in /  0mm 0 W/m2
Garrymore Weather Station, Geashill, Tullamore, Offaly, Ireland
Compliments of Weather Underground - 2 mb